Time;durP1;ratioP1;P1;durP2;ratioP2;P2;SDS_P1;SDS_P2;PMS_P1;PMS_P2;Temp;Humidity;BMP_temperature;BMP_pressure;BME280_temperature;BME280_humidity;BME280_pressure;Samples;Min_cycle;Max_cycle;Signal;HPM_P1;HPM_P2
2022/09/19 00:01:19;;;;;;;3.38;2.35;;;;;;;10.37;61.34;99418.41;5049233;28;20021;-68
2022/09/19 00:03:57;;;;;;;5.15;2.15;;;;;;;10.21;61.46;99411.75;5041200;28;20029;-68
2022/09/19 00:06:26;;;;;;;2.55;2.30;;;;;;;10.10;61.49;99417.69;5038843;28;20101;-68
2022/09/19 00:08:52;;;;;;;2.58;2.25;;;;;;;9.82;62.29;99420.06;5049684;28;20511;-68
2022/09/19 00:11:19;;;;;;;2.95;2.53;;;;;;;9.54;63.82;99426.00;5052427;28;20040;-68
2022/09/19 00:13:47;;;;;;;2.70;2.25;;;;;;;9.51;63.00;99409.88;5052307;28;20074;-68
2022/09/19 00:16:18;;;;;;;3.05;2.13;;;;;;;9.31;63.96;99406.63;5053304;28;20021;-68
2022/09/19 00:18:44;;;;;;;2.17;1.98;;;;;;;9.40;63.34;99415.00;5054002;28;20032;-68
2022/09/19 00:21:10;;;;;;;5.18;2.83;;;;;;;9.24;63.17;99406.28;5052741;28;20028;-68
2022/09/19 00:26:20;;;;;;;2.30;2.10;;;;;;;9.22;63.68;99408.59;5052892;28;20032;-68
2022/09/19 00:28:46;;;;;;;5.30;2.40;;;;;;;9.29;62.12;99414.50;5052030;28;20141;-68
2022/09/19 00:31:17;;;;;;;2.10;1.70;;;;;;;9.20;62.59;99397.75;5051904;28;20032;-68
2022/09/19 00:33:44;;;;;;;2.65;2.00;;;;;;;9.20;62.99;99406.09;5053842;28;20434;-68
2022/09/19 00:36:10;;;;;;;2.72;1.77;;;;;;;9.20;63.21;99417.28;5049227;28;20025;-68
2022/09/19 00:38:36;;;;;;;4.15;2.47;;;;;;;9.43;62.95;99421.91;5042481;28;20021;-68
2022/09/19 00:41:02;;;;;;;2.13;1.75;;;;;;;9.63;62.16;99400.84;5033665;28;20376;-68
2022/09/19 00:43:49;;;;;;;2.85;1.85;;;;;;;9.85;61.54;99411.00;5031782;28;20057;-68
2022/09/19 00:46:14;;;;;;;2.15;1.98;;;;;;;9.88;61.40;99409.53;5038956;28;20254;-68
2022/09/19 00:48:41;;;;;;;3.50;1.80;;;;;;;9.60;62.29;99391.16;5053542;28;20032;-68
2022/09/19 00:51:11;;;;;;;2.35;2.00;;;;;;;9.76;62.33;99401.81;5051987;28;20025;-68
2022/09/19 00:53:38;;;;;;;4.80;2.13;;;;;;;10.08;62.24;99394.84;5053488;28;20104;-68
2022/09/19 00:56:04;;;;;;;1.98;1.80;;;;;;;10.27;62.13;99395.63;5048320;28;20026;-68
2022/09/19 00:58:34;;;;;;;3.88;2.00;;;;;;;10.14;61.92;99391.88;5035354;28;20436;-68
2022/09/19 01:01:00;;;;;;;3.60;2.05;;;;;;;10.17;63.03;99382.81;5053320;28;20021;-68
2022/09/19 01:03:28;;;;;;;2.60;2.00;;;;;;;10.31;61.87;99390.97;5052049;28;20554;-68
2022/09/19 01:06:24;;;;;;;3.50;2.05;;;;;;;10.47;61.07;99389.28;5051808;28;20064;-68
2022/09/19 01:08:49;;;;;;;2.00;1.70;;;;;;;10.40;61.25;99383.38;5053041;28;20113;-68
2022/09/19 01:11:29;;;;;;;4.38;2.00;;;;;;;10.52;60.15;99377.09;5053006;28;20104;-68
2022/09/19 01:14:25;;;;;;;4.18;1.90;;;;;;;10.66;60.23;99382.44;5049136;28;20025;-68
2022/09/19 01:17:00;;;;;;;9.18;2.60;;;;;;;10.37;59.74;99378.44;5043557;28;20025;-68
2022/09/19 01:19:42;;;;;;;2.78;2.38;;;;;;;10.43;60.86;99388.31;5051612;28;20028;-68
2022/09/19 01:22:27;;;;;;;8.77;2.45;;;;;;;10.04;62.74;99388.28;5052402;28;20040;-68
2022/09/19 01:25:00;;;;;;;2.90;2.25;;;;;;;10.08;62.22;99380.88;5052848;28;20032;-68
2022/09/19 01:28:03;;;;;;;4.53;2.20;;;;;;;10.01;62.59;99388.94;5050315;28;20025;-69
2022/09/19 01:30:31;;;;;;;2.10;1.70;;;;;;;9.93;63.45;99376.66;5032813;28;20025;-68
2022/09/19 01:33:06;;;;;;;11.35;1.90;;;;;;;10.05;63.15;99389.09;5032811;28;20053;-68
2022/09/19 01:35:37;;;;;;;2.97;1.60;;;;;;;10.19;63.29;99383.28;5032717;28;20040;-68
2022/09/19 01:38:13;;;;;;;3.72;1.75;;;;;;;10.22;61.84;99383.44;5032915;28;20045;-68
2022/09/19 01:40:41;;;;;;;3.38;1.70;;;;;;;10.39;62.03;99378.94;5032569;28;20029;-68
2022/09/19 01:43:13;;;;;;;2.28;1.70;;;;;;;10.45;61.70;99376.81;5030252;28;20021;-68
2022/09/19 01:45:39;;;;;;;5.30;2.22;;;;;;;10.49;61.93;99370.19;5043597;28;20082;-69
2022/09/19 01:48:16;;;;;;;5.95;1.95;;;;;;;10.50;61.59;99379.41;5032657;28;20025;-68
2022/09/19 01:50:48;;;;;;;4.13;1.60;;;;;;;10.47;62.02;99383.69;5032392;28;20485;-68
2022/09/19 01:53:39;;;;;;;1.77;1.50;;;;;;;10.43;60.88;99388.31;5032406;28;20130;-68
2022/09/19 01:56:18;;;;;;;9.70;2.65;;;;;;;10.49;61.55;99370.19;5032615;28;20064;-68
2022/09/19 01:58:55;;;;;;;4.47;1.73;;;;;;;10.47;61.46;99386.47;5039163;28;20083;-68
2022/09/19 02:01:39;;;;;;;8.85;2.25;;;;;;;10.39;62.20;99387.34;5052198;28;20082;-68
2022/09/19 02:04:22;;;;;;;3.80;2.53;;;;;;;10.50;61.48;99376.59;5051952;28;20029;-68
2022/09/19 02:07:14;;;;;;;8.77;1.92;;;;;;;9.81;61.88;99379.31;5049257;28;20029;-68
2022/09/19 02:09:48;;;;;;;2.55;1.50;;;;;;;9.59;61.67;99383.94;5044903;28;20166;-68
2022/09/19 02:12:17;;;;;;;2.83;2.33;;;;;;;9.63;63.44;99387.69;5031859;28;20032;-68
2022/09/19 02:14:55;;;;;;;2.97;1.58;;;;;;;9.80;63.49;99380.47;5031784;28;20056;-68
2022/09/19 02:17:31;;;;;;;4.50;1.63;;;;;;;9.68;64.23;99395.91;5043064;28;20381;-68
2022/09/19 02:20:22;;;;;;;5.38;2.25;;;;;;;9.76;63.85;99396.22;5049716;28;20553;-68
2022/09/19 02:22:53;;;;;;;5.80;1.85;;;;;;;9.36;63.41;99394.47;5051086;28;20521;-68
2022/09/19 02:25:24;;;;;;;3.28;2.33;;;;;;;9.10;63.89;99379.34;5051740;28;20026;-68
2022/09/19 02:28:11;;;;;;;3.92;1.83;;;;;;;9.21;65.93;99373.47;5048990;28;20031;-68
2022/09/19 02:30:39;;;;;;;2.10;1.90;;;;;;;9.37;63.94;99374.59;5051417;28;20502;-68
2022/09/19 02:33:06;;;;;;;5.65;2.30;;;;;;;9.24;64.54;99389.53;5050030;28;20365;-68
2022/09/19 02:35:58;;;;;;;3.47;2.30;;;;;;;9.24;63.83;99390.38;5039422;28;20025;-68
2022/09/19 02:38:35;;;;;;;3.30;2.10;;;;;;;9.35;62.88;99396.44;5050185;28;20085;-68
2022/09/19 02:41:21;;;;;;;4.38;2.03;;;;;;;9.19;63.42;99396.09;5051512;28;20021;-68
2022/09/19 02:44:21;;;;;;;4.40;2.55;;;;;;;9.03;63.69;99392.97;5034172;28;20049;-68
2022/09/19 02:47:39;;;;;;;3.67;2.05;;;;;;;9.27;64.59;99394.44;5048926;28;20131;-69
2022/09/19 02:50:36;;;;;;;4.95;2.33;;;;;;;9.58;63.76;99404.63;5050871;28;20098;-68
2022/09/19 02:53:05;;;;;;;5.78;2.20;;;;;;;9.63;64.21;99407.25;5050947;28;20045;-68
2022/09/19 02:55:39;;;;;;;5.70;2.63;;;;;;;9.44;63.35;99402.00;5051530;28;20411;-69
2022/09/19 02:58:06;;;;;;;5.03;2.17;;;;;;;9.60;63.19;99405.13;5048239;28;20032;-68
2022/09/19 03:00:34;;;;;;;3.50;2.10;;;;;;;9.66;63.49;99411.34;5051260;28;20128;-68
2022/09/19 03:04:11;;;;;;;13.55;2.30;;;;;;;9.69;63.20;99408.72;5051414;28;20025;-68
2022/09/19 03:05:54;;;;;;;5.97;5.03;;;;;;;9.36;62.65;99398.06;5050918;28;20576;-68
2022/09/19 03:08:24;;;;;;;5.25;2.42;;;;;;;9.18;62.59;99402.03;5050061;28;20174;-68
2022/09/19 03:10:53;;;;;;;2.50;2.30;;;;;;;9.23;62.77;99393.47;5051035;28;20064;-68
2022/09/19 03:13:22;;;;;;;5.47;2.65;;;;;;;9.18;62.20;99396.44;5049292;28;20037;-68
2022/09/19 03:15:58;;;;;;;3.15;2.15;;;;;;;8.81;63.10;99394.75;5038003;28;20028;-68
2022/09/19 03:18:26;;;;;;;3.00;2.25;;;;;;;8.97;62.95;99397.88;5049972;28;20469;-68
2022/09/19 03:20:55;;;;;;;8.98;2.38;;;;;;;8.88;62.82;99401.81;5050992;28;20104;-68
2022/09/19 03:23:31;;;;;;;2.15;1.95;;;;;;;8.59;63.11;99395.66;5046494;28;20106;-68
2022/09/19 03:25:57;;;;;;;5.32;2.60;;;;;;;8.89;63.95;99387.53;5042797;28;20025;-68
2022/09/19 03:28:22;;;;;;;2.85;2.55;;;;;;;9.09;62.37;99397.25;5048075;28;20402;-68
2022/09/19 03:30:48;;;;;;;6.55;4.47;;;;;;;9.00;62.72;99390.84;5049563;28;20029;-68
2022/09/19 03:33:15;;;;;;;8.43;4.93;;;;;;;8.95;62.22;99389.03;5049886;28;20032;-68
2022/09/19 03:35:50;;;;;;;8.70;3.45;;;;;;;9.40;63.20;99389.88;5050920;28;20020;-69
2022/09/19 03:38:16;;;;;;;4.32;3.65;;;;;;;9.58;62.74;99390.69;5049753;28;20090;-68
2022/09/19 03:40:41;;;;;;;9.70;4.00;;;;;;;9.59;62.44;99399.84;5047634;28;20033;-69
2022/09/19 03:43:07;;;;;;;4.10;2.45;;;;;;;8.92;63.46;99391.63;5050461;28;20024;-69
2022/09/19 03:45:32;;;;;;;3.95;2.85;;;;;;;9.23;64.23;99399.06;5048572;28;20483;-68
2022/09/19 03:47:58;;;;;;;2.88;2.17;;;;;;;9.43;63.11;99402.34;5052723;28;20028;-69
2022/09/19 03:50:23;;;;;;;14.35;2.83;;;;;;;9.53;62.91;99399.19;5053403;28;20025;-68
2022/09/19 03:52:49;;;;;;;10.15;3.03;;;;;;;9.57;62.41;99396.56;5054415;28;20044;-68
2022/09/19 03:55:15;;;;;;;7.70;3.53;;;;;;;9.77;62.03;99409.03;5052416;28;20116;-68
2022/09/19 03:57:41;;;;;;;9.90;3.00;;;;;;;9.49;62.44;99395.44;5041135;28;20117;-68
2022/09/19 04:00:07;;;;;;;9.40;2.65;;;;;;;9.48;61.44;99393.81;5034464;28;20177;-68
2022/09/19 04:02:34;;;;;;;11.98;3.65;;;;;;;9.31;62.27;99391.84;5034338;28;20079;-69
2022/09/19 04:05:02;;;;;;;6.97;2.95;;;;;;;8.99;63.11;99395.59;5045252;28;20120;-68
2022/09/19 04:07:29;;;;;;;8.35;2.92;;;;;;;9.02;63.01;99391.31;5033366;28;20416;-68
2022/09/19 04:09:55;;;;;;;5.15;2.80;;;;;;;9.11;63.32;99397.75;5047509;28;20037;-69
2022/09/19 04:12:22;;;;;;;10.85;2.92;;;;;;;9.08;62.61;99387.25;5053604;28;20082;-68
2022/09/19 04:14:48;;;;;;;3.40;3.10;;;;;;;8.48;63.32;99383.97;5042362;28;20035;-68
2022/09/19 04:17:14;;;;;;;12.32;3.60;;;;;;;8.39;64.37;99402.63;5041414;28;20029;-69
2022/09/19 04:19:42;;;;;;;22.98;4.10;;;;;;;8.06;65.92;99408.53;5046733;28;20058;-68
2022/09/19 04:22:10;;;;;;;15.93;3.20;;;;;;;7.91;66.59;99393.06;5038084;28;20021;-69
2022/09/19 04:24:38;;;;;;;13.55;3.47;;;;;;;7.63;67.30;99391.25;5046639;28;20035;-68
2022/09/19 04:27:06;;;;;;;6.88;2.92;;;;;;;7.78;67.50;99392.81;5048011;28;20116;-68
2022/09/19 04:29:33;;;;;;;11.38;3.95;;;;;;;7.79;67.12;99394.47;5035457;28;20415;-68
2022/09/19 04:32:02;;;;;;;9.02;3.67;;;;;;;8.20;66.78;99400.09;5037927;28;20090;-70
2022/09/19 04:34:28;;;;;;;14.65;3.40;;;;;;;8.09;66.46;99399.56;5041904;28;20090;-67
2022/09/19 04:36:56;;;;;;;19.33;4.03;;;;;;;8.15;65.02;99407.47;5041156;28;20032;-67
2022/09/19 04:39:22;;;;;;;21.00;4.65;;;;;;;8.34;65.48;99409.16;5052055;28;20090;-68
2022/09/19 04:41:52;;;;;;;15.70;4.78;;;;;;;8.05;65.63;99410.50;5041043;28;20033;-69
2022/09/19 04:44:18;;;;;;;9.87;4.77;;;;;;;7.96;66.54;99409.63;5040397;28;20148;-68
2022/09/19 04:46:43;;;;;;;6.07;3.80;;;;;;;7.78;66.99;99400.34;5041855;28;20033;-68
2022/09/19 04:49:09;;;;;;;60.20;4.70;;;;;;;8.16;66.72;99402.69;5053798;28;20490;-67
2022/09/19 04:51:34;;;;;;;3.25;2.88;;;;;;;7.90;66.30;99389.44;5050248;28;20468;-67
2022/09/19 04:54:01;;;;;;;8.13;2.50;;;;;;;8.18;66.20;99394.81;5048924;28;20063;-69
2022/09/19 04:56:27;;;;;;;6.22;2.80;;;;;;;8.48;65.75;99397.91;5038966;28;20032;-68
2022/09/19 04:58:52;;;;;;;6.68;2.88;;;;;;;8.78;65.02;99397.38;5051354;28;20565;-68
2022/09/19 05:01:18;;;;;;;6.68;3.22;;;;;;;8.92;64.84;99388.84;5040238;28;20084;-69
2022/09/19 05:03:43;;;;;;;12.30;2.63;;;;;;;8.79;66.11;99393.44;5039427;28;20029;-68
2022/09/19 05:06:10;;;;;;;4.85;2.58;;;;;;;8.73;66.80;99406.72;5032638;28;20033;-68
2022/09/19 05:08:36;;;;;;;3.55;2.00;;;;;;;8.69;68.33;99408.50;5038369;28;20028;-69
2022/09/19 05:11:05;;;;;;;7.78;3.08;;;;;;;8.61;69.14;99407.31;5038680;28;20025;-68
2022/09/19 05:13:32;;;;;;;28.92;5.50;;;;;;;8.66;69.73;99404.41;5049813;28;20476;-68
2022/09/19 05:16:02;;;;;;;7.85;2.63;;;;;;;8.90;69.79;99402.31;5033071;28;20036;-68
2022/09/19 05:18:30;;;;;;;7.00;2.50;;;;;;;8.76;69.39;99403.25;5035315;28;20603;-68
2022/09/19 05:20:56;;;;;;;4.75;2.90;;;;;;;8.70;69.85;99394.22;5037323;28;20057;-70
2022/09/19 05:23:23;;;;;;;2.67;2.28;;;;;;;8.92;69.88;99397.22;5033856;28;20025;-68
2022/09/19 05:25:52;;;;;;;4.82;2.47;;;;;;;8.95;68.46;99393.78;5044518;28;20637;-68
2022/09/19 05:28:21;;;;;;;2.58;2.35;;;;;;;8.93;67.82;99399.69;5031873;28;20033;-69
2022/09/19 05:30:49;;;;;;;2.77;2.47;;;;;;;9.06;66.77;99389.53;5034796;28;20032;-68
2022/09/19 05:33:21;;;;;;;4.78;2.55;;;;;;;9.18;66.08;99405.63;5038755;28;20055;-68
2022/09/19 05:35:47;;;;;;;14.27;2.90;;;;;;;9.39;66.61;99397.41;5038537;28;20021;-67
2022/09/19 05:38:12;;;;;;;2.50;2.05;;;;;;;9.62;64.55;99407.59;5045965;28;20127;-70
2022/09/19 05:40:38;;;;;;;5.57;2.47;;;;;;;9.61;64.94;99397.59;5043396;28;20033;-68
2022/09/19 05:43:03;;;;;;;4.13;2.65;;;;;;;9.74;65.84;99404.94;5050044;28;20029;-69
2022/09/19 05:45:29;;;;;;;8.70;3.05;;;;;;;9.84;66.22;99406.56;5056311;28;20024;-67
2022/09/19 05:48:02;;;;;;;6.40;2.35;;;;;;;9.90;65.97;99410.84;5052778;28;20036;-67
2022/09/19 05:50:28;;;;;;;8.52;3.40;;;;;;;10.05;64.72;99419.84;5053051;28;20503;-69
2022/09/19 05:55:38;;;;;;;7.30;2.97;;;;;;;9.98;64.70;99406.38;5039271;28;20082;-70
2022/09/19 05:58:06;;;;;;;9.02;2.92;;;;;;;10.20;64.52;99408.13;5045411;28;20454;-71
2022/09/19 06:00:31;;;;;;;6.50;2.40;;;;;;;10.46;64.03;99409.22;5039301;28;20048;-68
2022/09/19 06:03:02;;;;;;;15.23;3.38;;;;;;;10.67;63.94;99414.88;5053761;28;20469;-69
2022/09/19 06:05:32;;;;;;;13.85;2.78;;;;;;;10.66;63.48;99407.63;5042700;28;20029;-70
2022/09/19 06:07:59;;;;;;;3.50;2.00;;;;;;;10.60;61.44;99408.97;5044354;28;20044;-69
2022/09/19 06:10:26;;;;;;;5.43;2.22;;;;;;;10.64;60.71;99404.34;5043715;28;20104;-68
2022/09/19 06:12:57;;;;;;;2.85;2.22;;;;;;;10.99;61.50;99423.75;5042563;28;20030;-70
2022/09/19 06:15:22;;;;;;;10.90;2.22;;;;;;;11.06;60.61;99424.00;5051615;28;20036;-69
2022/09/19 06:17:55;;;;;;;4.15;2.40;;;;;;;11.19;58.69;99412.88;5029066;28;20037;-69
2022/09/19 06:20:20;;;;;;;2.60;1.83;;;;;;;11.22;58.67;99421.44;5035207;28;20091;-68
2022/09/19 06:22:46;;;;;;;4.85;2.35;;;;;;;11.49;57.60;99424.84;5035982;28;20462;-70
2022/09/19 06:25:13;;;;;;;5.80;1.70;;;;;;;11.52;55.53;99414.94;5036119;28;20116;-68
2022/09/19 06:27:39;;;;;;;4.75;1.98;;;;;;;11.66;55.09;99409.06;5044133;28;20044;-73
2022/09/19 06:30:05;;;;;;;4.10;1.73;;;;;;;11.74;54.84;99412.94;5034887;28;20032;-68
2022/09/19 06:32:31;;;;;;;2.10;1.63;;;;;;;11.78;53.81;99413.88;5035630;28;20029;-67
2022/09/19 06:34:57;;;;;;;8.85;2.47;;;;;;;12.03;53.39;99416.78;5046251;28;20028;-68
2022/09/19 06:37:23;;;;;;;1.75;1.40;;;;;;;11.93;51.62;99424.44;5039570;28;20110;-68
2022/09/19 06:39:48;;;;;;;4.63;1.73;;;;;;;11.93;52.32;99424.44;5030394;28;20088;-67
2022/09/19 06:42:14;;;;;;;2.28;1.85;;;;;;;12.23;53.55;99423.47;5031433;28;20042;-69
2022/09/19 06:44:39;;;;;;;3.67;1.92;;;;;;;12.23;53.40;99425.47;5033805;28;20049;-68
2022/09/19 06:47:06;;;;;;;3.92;1.85;;;;;;;12.41;53.15;99423.28;5035087;28;20051;-68
2022/09/19 06:49:32;;;;;;;5.18;1.90;;;;;;;12.33;51.86;99419.44;5032014;28;20040;-67
2022/09/19 06:51:57;;;;;;;2.15;1.95;;;;;;;12.32;51.77;99415.00;5037762;28;20021;-67
2022/09/19 06:54:23;;;;;;;2.83;1.90;;;;;;;12.57;52.58;99418.63;5032612;28;20036;-68
2022/09/19 06:56:49;;;;;;;2.78;2.00;;;;;;;12.83;52.79;99431.47;5034302;28;20033;-68
2022/09/19 06:59:17;;;;;;;3.05;1.88;;;;;;;13.00;52.29;99424.00;5031158;28;20056;-68
2022/09/19 07:01:45;;;;;;;4.20;2.15;;;;;;;13.20;51.49;99425.03;5031209;28;20021;-67
2022/09/19 07:04:11;;;;;;;4.80;2.55;;;;;;;13.11;50.48;99413.09;5037682;28;20181;-68
2022/09/19 07:06:36;;;;;;;2.22;1.60;;;;;;;13.15;49.76;99414.00;5027773;28;20037;-68
2022/09/19 07:09:03;;;;;;;2.92;1.95;;;;;;;13.13;50.68;99410.75;5036521;28;20087;-70
2022/09/19 07:11:29;;;;;;;4.25;1.77;;;;;;;13.47;50.23;99417.84;5032057;28;20150;-71
2022/09/19 07:13:55;;;;;;;7.75;2.63;;;;;;;13.61;49.98;99411.00;5046050;28;20526;-73
2022/09/19 07:16:20;;;;;;;5.10;1.98;;;;;;;13.37;49.06;99397.81;5031422;28;20025;-72
2022/09/19 07:18:45;;;;;;;12.02;2.08;;;;;;;13.56;50.12;99403.66;5042472;28;20025;-70
2022/09/19 07:21:11;;;;;;;7.10;2.25;;;;;;;13.38;47.83;99410.69;5039692;28;20030;-69
2022/09/19 07:23:37;;;;;;;4.68;1.88;;;;;;;13.50;48.32;99388.22;5046204;28;20033;-68
2022/09/19 07:26:03;;;;;;;7.07;2.67;;;;;;;13.86;48.14;99406.09;5043113;28;20025;-69
2022/09/19 07:28:30;;;;;;;12.45;7.60;;;;;;;13.84;48.68;99394.38;5039844;28;20400;-67
2022/09/19 07:30:58;;;;;;;9.00;4.03;;;;;;;14.00;46.64;99405.66;5042402;28;20049;-69
2022/09/19 07:33:24;;;;;;;2.13;1.55;;;;;;;14.09;46.39;99388.63;5048179;28;20113;-70
2022/09/19 07:35:51;;;;;;;4.78;2.13;;;;;;;13.93;46.23;99390.59;5039627;28;20087;-69
2022/09/19 07:38:18;;;;;;;10.55;3.35;;;;;;;14.34;46.86;99396.91;5038334;28;20032;-69
2022/09/19 07:40:45;;;;;;;5.38;2.53;;;;;;;14.37;45.55;99395.38;5039192;28;20060;-69
2022/09/19 07:43:15;;;;;;;3.63;1.38;;;;;;;14.42;43.02;99395.91;5048795;28;20028;-69
2022/09/19 07:45:45;;;;;;;;;;;;;;;14.75;43.68;99396.72;5052155;28;20032;-70
2022/09/19 07:48:11;;;;;;;7.43;1.60;;;;;;;14.94;41.80;99386.72;5041190;28;20303;-70
2022/09/19 07:50:37;;;;;;;6.32;1.48;;;;;;;15.11;42.13;99380.66;5038482;28;20060;-71
2022/09/19 07:53:06;;;;;;;1.95;1.55;;;;;;;15.39;40.42;99393.78;5039808;28;20424;-70
2022/09/19 07:55:33;;;;;;;19.52;2.15;;;;;;;15.28;38.65;99382.25;5035391;28;20017;-71
2022/09/19 07:57:59;;;;;;;1.70;1.00;;;;;;;15.46;38.19;99383.81;5041488;28;20032;-70
2022/09/19 08:00:27;;;;;;;1.65;1.30;;;;;;;15.39;37.21;99370.41;5043862;28;20044;-71
2022/09/19 08:03:04;;;;;;;6.45;1.02;;;;;;;15.72;38.28;99372.66;5032712;28;20388;-70
2022/09/19 08:05:36;;;;;;;4.70;2.00;;;;;;;15.70;38.74;99374.25;5036395;28;20025;-69
2022/09/19 08:08:02;;;;;;;1.65;0.90;;;;;;;15.79;38.19;99368.38;5034333;28;20017;-69
2022/09/19 08:10:28;;;;;;;9.75;1.65;;;;;;;16.16;39.26;99358.59;5051087;28;20025;-69
2022/09/19 08:12:58;;;;;;;13.68;2.10;;;;;;;15.99;36.90;99360.72;5040562;28;20098;-68
2022/09/19 08:15:23;;;;;;;;;;;;;;;16.28;38.45;99358.41;5036377;28;20103;-68
2022/09/19 08:18:01;;;;;;;3.03;1.05;;;;;;;16.46;38.31;99352.25;5033791;28;20009;-69
2022/09/19 08:20:29;;;;;;;6.15;1.52;;;;;;;16.59;37.83;99350.03;5032851;28;20112;-69
2022/09/19 08:22:59;;;;;;;2.28;1.20;;;;;;;16.60;36.50;99340.38;5049579;28;20021;-68
2022/09/19 08:25:26;;;;;;;5.43;1.63;;;;;;;16.66;36.72;99339.69;5043179;28;20488;-68
2022/09/19 08:27:52;;;;;;;8.02;2.20;;;;;;;16.60;36.79;99327.06;5044504;28;20029;-69
2022/09/19 08:30:19;;;;;;;5.03;2.38;;;;;;;16.66;37.26;99336.03;5047830;28;20155;-68
2022/09/19 08:32:49;;;;;;;2.05;1.50;;;;;;;17.03;38.92;99337.41;5039481;28;20013;-69
2022/09/19 08:35:16;;;;;;;;;;;;;;;17.12;38.88;99337.94;5040688;28;20029;-68
2022/09/19 08:37:42;;;;;;;2.45;1.88;;;;;;;17.38;38.10;99336.25;5033410;28;20419;-69
2022/09/19 08:40:21;;;;;;;2.20;1.20;;;;;;;17.38;36.73;99313.66;5032897;28;20396;-68
2022/09/19 08:43:27;;;;;;;3.10;1.83;;;;;;;17.60;35.62;99330.84;5030539;28;20104;-71
2022/09/19 08:46:33;;;;;;;3.35;1.50;;;;;;;17.59;36.50;99323.56;5049454;28;20063;-70
2022/09/19 08:49:00;;;;;;;7.20;1.73;;;;;;;17.72;34.45;99321.28;5047174;28;20024;-68
2022/09/19 08:51:32;;;;;;;7.78;1.45;;;;;;;17.90;35.39;99316.63;5037590;28;20025;-69
2022/09/19 08:54:10;;;;;;;4.82;1.25;;;;;;;17.77;32.66;99312.44;5045279;28;20029;-68
2022/09/19 08:56:37;;;;;;;3.22;0.90;;;;;;;18.00;35.80;99309.44;5033469;28;20032;-69
2022/09/19 08:59:10;;;;;;;2.08;1.05;;;;;;;18.06;35.06;99307.13;5033692;28;20053;-69
2022/09/19 09:01:38;;;;;;;1.00;0.90;;;;;;;18.12;34.18;99299.88;5039841;28;20113;-68
2022/09/19 09:04:25;;;;;;;22.27;3.38;;;;;;;18.19;36.61;99304.78;5039855;28;20499;-69
2022/09/19 09:07:06;;;;;;;4.22;0.90;;;;;;;18.30;36.94;99300.03;5043647;28;20035;-71
2022/09/19 09:10:02;;;;;;;4.22;1.00;;;;;;;17.96;33.47;99285.94;5035661;28;20427;-71
2022/09/19 09:12:40;;;;;;;1.23;0.80;;;;;;;18.41;34.77;99290.81;5047083;28;20025;-72
2022/09/19 09:15:21;;;;;;;2.45;0.77;;;;;;;18.58;34.18;99287.31;5042107;28;20488;-71
2022/09/19 09:18:26;;;;;;;2.75;0.77;;;;;;;18.60;34.71;99282.06;5035701;28;20029;-72
2022/09/19 09:21:12;;;;;;;2.85;0.90;;;;;;;18.84;36.11;99287.44;5049430;28;20029;-69
2022/09/19 09:23:41;;;;;;;1.10;0.60;;;;;;;18.91;34.11;99281.81;5045411;28;20024;-68
2022/09/19 09:26:17;;;;;;;3.72;0.60;;;;;;;18.96;34.92;99277.81;5031675;28;20494;-69
2022/09/19 09:28:51;;;;;;;1.65;0.77;;;;;;;19.00;33.80;99273.78;5046763;28;20029;-71
2022/09/19 09:31:25;;;;;;;0.98;0.60;;;;;;;19.09;34.23;99267.78;5047310;28;20491;-72
2022/09/19 09:34:03;;;;;;;3.38;1.00;;;;;;;19.39;34.91;99268.69;5036465;28;20116;-69
2022/09/19 09:36:35;;;;;;;0.50;0.50;;;;;;;19.44;33.43;99263.44;5034796;28;20185;-70
2022/09/19 09:39:30;;;;;;;0.50;0.50;;;;;;;19.52;32.04;99257.78;5040002;28;20507;-69
2022/09/19 09:41:59;;;;;;;1.88;0.65;;;;;;;19.44;31.38;99259.78;5034710;28;20092;-70
2022/09/19 09:44:52;;;;;;;1.63;0.80;;;;;;;19.30;33.84;99252.03;5032497;28;20423;-70
2022/09/19 09:47:26;;;;;;;1.10;0.60;;;;;;;19.56;31.72;99252.94;5044846;28;20045;-70
2022/09/19 09:50:07;;;;;;;0.73;0.50;;;;;;;19.66;30.94;99242.81;5040332;28;20104;-71
2022/09/19 09:52:50;;;;;;;3.42;0.70;;;;;;;19.44;30.77;99228.59;5036396;28;20430;-70
2022/09/19 09:58:39;;;;;;;0.98;0.80;;;;;;;19.96;31.34;99233.97;5042997;28;20560;-71
2022/09/19 10:04:33;;;;;;;3.28;0.68;;;;;;;19.78;31.35;99222.56;5036609;28;20082;-72
2022/09/19 10:07:24;;;;;;;7.00;1.05;;;;;;;19.72;30.45;99219.31;5027915;28;20081;-71
2022/09/19 10:09:57;;;;;;;4.55;1.05;;;;;;;20.01;32.07;99222.19;5033139;28;20583;-71
2022/09/19 10:12:43;;;;;;;0.73;0.63;;;;;;;20.22;30.98;99214.88;5033417;28;20020;-72
2022/09/19 10:15:20;;;;;;;2.97;0.60;;;;;;;20.01;29.38;99215.72;5041687;28;20025;-71
2022/09/19 10:17:52;;;;;;;2.65;0.80;;;;;;;19.94;28.65;99210.03;5040096;28;20025;-71
2022/09/19 10:20:23;;;;;;;2.58;0.88;;;;;;;20.23;31.52;99207.97;5041913;28;20025;-71
2022/09/19 10:22:48;;;;;;;;;;;;;;;20.39;29.06;99215.25;5051955;28;20044;-71
2022/09/19 10:25:16;;;;;;;2.22;0.90;;;;;;;20.38;27.95;99207.97;5044435;28;20380;-71
2022/09/19 10:27:45;;;;;;;2.58;0.50;;;;;;;20.38;29.24;99193.75;5047932;28;20021;-71
2022/09/19 10:30:17;;;;;;;1.00;0.50;;;;;;;20.51;28.55;99206.31;5042596;28;20030;-71
2022/09/19 10:32:43;;;;;;;5.57;1.02;;;;;;;20.67;29.35;99203.00;5042687;28;20087;-71
2022/09/19 10:35:35;;;;;;;0.70;0.60;;;;;;;20.73;29.33;99194.88;5046325;28;20029;-70
2022/09/19 10:38:13;;;;;;;1.73;1.08;;;;;;;20.73;27.76;99184.34;5044548;28;20132;-70
2022/09/19 10:40:53;;;;;;;1.23;0.70;;;;;;;20.87;27.06;99192.00;5030272;28;20033;-71
2022/09/19 10:43:31;;;;;;;1.23;0.50;;;;;;;20.87;27.28;99186.31;5029703;28;20120;-70
2022/09/19 10:46:06;;;;;;;5.53;0.90;;;;;;;21.02;28.52;99181.38;5032818;28;20455;-70
2022/09/19 10:48:33;;;;;;;1.65;0.68;;;;;;;21.10;29.31;99185.00;5039834;28;20465;-70
2022/09/19 10:51:04;;;;;;;1.35;0.77;;;;;;;21.10;28.62;99187.84;5036261;28;20547;-70
2022/09/19 10:53:33;;;;;;;1.00;0.70;;;;;;;21.29;27.26;99183.66;5030765;28;20037;-71
2022/09/19 10:56:11;;;;;;;2.95;0.60;;;;;;;21.34;27.41;99173.91;5032442;28;20020;-71
2022/09/19 10:58:41;;;;;;;0.70;0.60;;;;;;;21.37;27.90;99177.94;5040229;28;20032;-71
2022/09/19 11:01:20;;;;;;;2.65;0.45;;;;;;;21.14;26.18;99174.44;5036763;28;20075;-72
2022/09/19 11:04:23;;;;;;;8.73;2.45;;;;;;;21.13;26.89;99169.97;5048168;28;20037;-71
2022/09/19 11:07:00;;;;;;;2.88;1.00;;;;;;;21.22;28.14;99160.97;5033834;28;20596;-70
2022/09/19 11:09:37;;;;;;;12.82;2.65;;;;;;;21.41;28.59;99165.31;5030925;28;20040;-70
2022/09/19 11:12:13;;;;;;;4.03;1.08;;;;;;;21.54;28.70;99159.97;5042451;28;20407;-71
2022/09/19 11:14:45;;;;;;;5.32;1.40;;;;;;;21.48;28.78;99152.25;5036362;28;20030;-71
2022/09/19 11:17:31;;;;;;;4.53;1.10;;;;;;;21.56;29.33;99151.00;5030970;28;20033;-71
2022/09/19 11:20:10;;;;;;;8.75;1.70;;;;;;;21.68;29.42;99144.03;5040213;28;20059;-70
2022/09/19 11:23:05;;;;;;;3.88;2.28;;;;;;;21.68;27.28;99153.38;5043321;28;20021;-72
2022/09/19 11:25:36;;;;;;;9.18;1.60;;;;;;;21.58;27.53;99151.38;5036611;28;20025;-72
2022/09/19 11:28:12;;;;;;;5.57;1.20;;;;;;;21.56;28.00;99151.81;5038452;28;20025;-71
2022/09/19 11:30:56;;;;;;;4.03;1.20;;;;;;;21.52;26.77;99144.53;5036658;28;20022;-72
2022/09/19 11:33:35;;;;;;;6.22;1.60;;;;;;;21.61;26.33;99130.66;5035006;28;20032;-70
2022/09/19 11:36:13;;;;;;;2.45;1.42;;;;;;;21.67;27.25;99137.53;5034513;28;20032;-70
2022/09/19 11:39:03;;;;;;;6.03;1.80;;;;;;;21.81;28.12;99135.78;5038337;28;20025;-72
2022/09/19 11:41:53;;;;;;;5.00;0.88;;;;;;;21.78;28.11;99133.78;5041949;28;20024;-71
2022/09/19 11:44:43;;;;;;;5.38;1.17;;;;;;;21.97;27.77;99135.22;5050554;28;20088;-69
2022/09/19 11:47:14;;;;;;;2.22;1.38;;;;;;;21.98;26.52;99120.56;5036844;28;20132;-72
2022/09/19 11:50:20;;;;;;;1.42;1.05;;;;;;;21.89;25.70;99114.56;5034853;28;20076;-71
2022/09/19 11:53:01;;;;;;;1.92;1.00;;;;;;;22.04;26.52;99106.69;5032455;28;20028;-72
2022/09/19 11:55:43;;;;;;;2.05;0.90;;;;;;;21.93;26.59;99106.78;5050591;28;20025;-70
2022/09/19 11:58:33;;;;;;;2.90;1.23;;;;;;;22.05;26.03;99098.94;5030785;28;20090;-70
2022/09/19 12:01:05;;;;;;;1.77;1.08;;;;;;;22.04;26.02;99098.16;5031395;28;20518;-72
2022/09/19 12:03:44;;;;;;;2.78;1.00;;;;;;;22.05;25.97;99101.78;5032578;28;20539;-73
2022/09/19 12:06:16;;;;;;;3.88;0.80;;;;;;;22.09;26.65;99085.50;5041633;28;20028;-72
2022/09/19 12:09:05;;;;;;;5.40;1.55;;;;;;;22.15;26.42;99098.84;5033690;28;20550;-71
2022/09/19 12:11:44;;;;;;;3.03;1.00;;;;;;;22.33;25.77;99099.88;5044264;28;20010;-69
2022/09/19 12:14:19;;;;;;;1.48;0.70;;;;;;;22.31;25.48;99091.75;5034378;28;20066;-69